sensor_id;sensor_type;location;lat;lon;timestamp;P1;durP1;ratioP1;P2;durP2;ratioP2
12631;SDS011;6381;45.748;12.106;2023-02-03T00:00:05;176.47;;;146.90;;
12631;SDS011;6381;45.748;12.106;2023-02-03T00:02:38;179.90;;;144.40;;
12631;SDS011;6381;45.748;12.106;2023-02-03T00:05:07;181.63;;;142.70;;
12631;SDS011;6381;45.748;12.106;2023-02-03T00:07:36;183.77;;;143.17;;
12631;SDS011;6381;45.748;12.106;2023-02-03T00:10:06;180.97;;;143.87;;
12631;SDS011;6381;45.748;12.106;2023-02-03T00:12:35;164.63;;;133.97;;
12631;SDS011;6381;45.748;12.106;2023-02-03T00:15:04;175.37;;;139.73;;
12631;SDS011;6381;45.748;12.106;2023-02-03T00:17:34;168.93;;;140.40;;
12631;SDS011;6381;45.748;12.106;2023-02-03T00:20:02;161.53;;;132.57;;
12631;SDS011;6381;45.748;12.106;2023-02-03T00:22:32;157.63;;;129.50;;
12631;SDS011;6381;45.748;12.106;2023-02-03T00:25:02;159.70;;;129.07;;
12631;SDS011;6381;45.748;12.106;2023-02-03T00:27:31;153.00;;;126.20;;
12631;SDS011;6381;45.748;12.106;2023-02-03T00:30:00;155.83;;;129.23;;
12631;SDS011;6381;45.748;12.106;2023-02-03T00:32:28;162.60;;;130.00;;
12631;SDS011;6381;45.748;12.106;2023-02-03T00:34:57;157.47;;;126.13;;
12631;SDS011;6381;45.748;12.106;2023-02-03T00:37:26;153.07;;;123.87;;
12631;SDS011;6381;45.748;12.106;2023-02-03T00:39:55;179.67;;;140.40;;
12631;SDS011;6381;45.748;12.106;2023-02-03T00:42:25;172.97;;;135.50;;
12631;SDS011;6381;45.748;12.106;2023-02-03T00:44:54;179.30;;;139.47;;
12631;SDS011;6381;45.748;12.106;2023-02-03T00:47:22;176.50;;;141.93;;
12631;SDS011;6381;45.748;12.106;2023-02-03T00:49:51;170.97;;;140.43;;
12631;SDS011;6381;45.748;12.106;2023-02-03T00:52:19;174.70;;;138.73;;
12631;SDS011;6381;45.748;12.106;2023-02-03T00:54:48;169.67;;;138.43;;
12631;SDS011;6381;45.748;12.106;2023-02-03T00:57:17;171.53;;;139.83;;
12631;SDS011;6381;45.748;12.106;2023-02-03T00:59:47;171.73;;;139.63;;
12631;SDS011;6381;45.748;12.106;2023-02-03T01:02:15;180.33;;;141.47;;
12631;SDS011;6381;45.748;12.106;2023-02-03T01:04:44;166.33;;;137.53;;
12631;SDS011;6381;45.748;12.106;2023-02-03T01:07:13;165.70;;;137.83;;
12631;SDS011;6381;45.748;12.106;2023-02-03T01:09:42;176.10;;;138.43;;
12631;SDS011;6381;45.748;12.106;2023-02-03T01:12:11;174.03;;;139.03;;
12631;SDS011;6381;45.748;12.106;2023-02-03T01:14:39;170.60;;;135.80;;
12631;SDS011;6381;45.748;12.106;2023-02-03T01:17:09;166.33;;;134.43;;
12631;SDS011;6381;45.748;12.106;2023-02-03T01:19:38;169.27;;;137.50;;
12631;SDS011;6381;45.748;12.106;2023-02-03T01:22:06;171.57;;;139.60;;
12631;SDS011;6381;45.748;12.106;2023-02-03T01:24:35;171.33;;;137.77;;
12631;SDS011;6381;45.748;12.106;2023-02-03T01:27:05;172.57;;;134.77;;
12631;SDS011;6381;45.748;12.106;2023-02-03T01:29:33;162.37;;;133.57;;
12631;SDS011;6381;45.748;12.106;2023-02-03T01:32:02;159.93;;;134.07;;
12631;SDS011;6381;45.748;12.106;2023-02-03T01:34:35;166.03;;;130.20;;
12631;SDS011;6381;45.748;12.106;2023-02-03T01:37:04;160.23;;;129.87;;
12631;SDS011;6381;45.748;12.106;2023-02-03T01:39:33;152.80;;;125.57;;
12631;SDS011;6381;45.748;12.106;2023-02-03T01:42:02;162.77;;;128.30;;
12631;SDS011;6381;45.748;12.106;2023-02-03T01:44:37;158.73;;;128.17;;
12631;SDS011;6381;45.748;12.106;2023-02-03T01:47:20;178.37;;;140.90;;
12631;SDS011;6381;45.748;12.106;2023-02-03T01:49:56;195.47;;;153.20;;
12631;SDS011;6381;45.748;12.106;2023-02-03T01:52:33;177.53;;;142.70;;
12631;SDS011;6381;45.748;12.106;2023-02-03T01:55:04;158.43;;;131.20;;
12631;SDS011;6381;45.748;12.106;2023-02-03T01:57:37;186.03;;;143.83;;
12631;SDS011;6381;45.748;12.106;2023-02-03T02:00:10;178.53;;;138.03;;
12631;SDS011;6381;45.748;12.106;2023-02-03T02:02:40;170.87;;;140.13;;
12631;SDS011;6381;45.748;12.106;2023-02-03T02:05:15;177.47;;;141.77;;
12631;SDS011;6381;45.748;12.106;2023-02-03T02:07:49;194.93;;;151.37;;
12631;SDS011;6381;45.748;12.106;2023-02-03T02:10:18;193.07;;;146.70;;
12631;SDS011;6381;45.748;12.106;2023-02-03T02:12:47;177.93;;;142.97;;
12631;SDS011;6381;45.748;12.106;2023-02-03T02:15:16;180.80;;;140.33;;
12631;SDS011;6381;45.748;12.106;2023-02-03T02:17:58;178.77;;;143.30;;
12631;SDS011;6381;45.748;12.106;2023-02-03T02:20:59;186.43;;;143.10;;
12631;SDS011;6381;45.748;12.106;2023-02-03T02:23:58;190.10;;;147.67;;
12631;SDS011;6381;45.748;12.106;2023-02-03T02:26:49;174.10;;;138.53;;
12631;SDS011;6381;45.748;12.106;2023-02-03T02:29:33;176.20;;;140.23;;
12631;SDS011;6381;45.748;12.106;2023-02-03T02:32:27;189.53;;;146.50;;
12631;SDS011;6381;45.748;12.106;2023-02-03T02:35:03;195.70;;;149.93;;
12631;SDS011;6381;45.748;12.106;2023-02-03T02:37:41;166.43;;;133.90;;
12631;SDS011;6381;45.748;12.106;2023-02-03T02:40:19;171.80;;;135.30;;
12631;SDS011;6381;45.748;12.106;2023-02-03T02:42:58;163.80;;;128.57;;
12631;SDS011;6381;45.748;12.106;2023-02-03T02:45:35;159.90;;;128.43;;
12631;SDS011;6381;45.748;12.106;2023-02-03T02:48:14;159.57;;;126.33;;
12631;SDS011;6381;45.748;12.106;2023-02-03T02:50:50;164.73;;;124.67;;
12631;SDS011;6381;45.748;12.106;2023-02-03T02:53:23;154.00;;;122.93;;
12631;SDS011;6381;45.748;12.106;2023-02-03T02:55:55;153.77;;;123.10;;
12631;SDS011;6381;45.748;12.106;2023-02-03T02:58:27;156.73;;;123.30;;
12631;SDS011;6381;45.748;12.106;2023-02-03T03:00:58;151.00;;;123.70;;
12631;SDS011;6381;45.748;12.106;2023-02-03T03:03:29;153.47;;;124.60;;
12631;SDS011;6381;45.748;12.106;2023-02-03T03:05:59;149.00;;;123.20;;
12631;SDS011;6381;45.748;12.106;2023-02-03T03:08:35;148.33;;;121.70;;
12631;SDS011;6381;45.748;12.106;2023-02-03T03:11:09;150.77;;;118.20;;
12631;SDS011;6381;45.748;12.106;2023-02-03T03:13:40;148.37;;;121.60;;
12631;SDS011;6381;45.748;12.106;2023-02-03T03:16:12;153.00;;;122.13;;
12631;SDS011;6381;45.748;12.106;2023-02-03T03:18:45;149.50;;;123.03;;
12631;SDS011;6381;45.748;12.106;2023-02-03T03:21:16;152.33;;;122.13;;
12631;SDS011;6381;45.748;12.106;2023-02-03T03:23:49;146.77;;;119.70;;
12631;SDS011;6381;45.748;12.106;2023-02-03T03:26:21;143.13;;;118.97;;
12631;SDS011;6381;45.748;12.106;2023-02-03T03:28:57;161.43;;;126.07;;
12631;SDS011;6381;45.748;12.106;2023-02-03T03:31:33;157.97;;;125.00;;
12631;SDS011;6381;45.748;12.106;2023-02-03T03:34:04;159.07;;;126.27;;
12631;SDS011;6381;45.748;12.106;2023-02-03T03:36:35;158.53;;;126.30;;
12631;SDS011;6381;45.748;12.106;2023-02-03T03:39:11;157.70;;;129.57;;
12631;SDS011;6381;45.748;12.106;2023-02-03T03:41:49;152.97;;;126.27;;
12631;SDS011;6381;45.748;12.106;2023-02-03T03:44:26;157.70;;;128.60;;
12631;SDS011;6381;45.748;12.106;2023-02-03T03:47:02;167.43;;;132.03;;
12631;SDS011;6381;45.748;12.106;2023-02-03T03:49:35;160.83;;;130.50;;
12631;SDS011;6381;45.748;12.106;2023-02-03T03:52:06;162.60;;;129.77;;
12631;SDS011;6381;45.748;12.106;2023-02-03T03:54:37;154.83;;;123.40;;
12631;SDS011;6381;45.748;12.106;2023-02-03T03:57:10;160.27;;;128.60;;
12631;SDS011;6381;45.748;12.106;2023-02-03T03:59:43;156.97;;;127.27;;
12631;SDS011;6381;45.748;12.106;2023-02-03T04:02:14;160.47;;;124.43;;
12631;SDS011;6381;45.748;12.106;2023-02-03T04:04:47;155.37;;;122.73;;
12631;SDS011;6381;45.748;12.106;2023-02-03T04:07:16;166.57;;;130.43;;
12631;SDS011;6381;45.748;12.106;2023-02-03T04:09:45;166.93;;;132.57;;
12631;SDS011;6381;45.748;12.106;2023-02-03T04:12:15;163.80;;;133.90;;
12631;SDS011;6381;45.748;12.106;2023-02-03T04:14:50;167.53;;;133.70;;
12631;SDS011;6381;45.748;12.106;2023-02-03T04:17:18;162.83;;;132.47;;
12631;SDS011;6381;45.748;12.106;2023-02-03T04:19:48;167.03;;;131.90;;
12631;SDS011;6381;45.748;12.106;2023-02-03T04:22:17;171.13;;;131.77;;
12631;SDS011;6381;45.748;12.106;2023-02-03T04:24:46;170.80;;;131.97;;
12631;SDS011;6381;45.748;12.106;2023-02-03T04:27:16;170.37;;;136.70;;
12631;SDS011;6381;45.748;12.106;2023-02-03T04:29:45;171.30;;;137.93;;
12631;SDS011;6381;45.748;12.106;2023-02-03T04:32:14;176.20;;;136.00;;
12631;SDS011;6381;45.748;12.106;2023-02-03T04:34:42;183.63;;;142.63;;
12631;SDS011;6381;45.748;12.106;2023-02-03T04:37:12;177.40;;;141.73;;
12631;SDS011;6381;45.748;12.106;2023-02-03T04:39:41;172.80;;;139.17;;
12631;SDS011;6381;45.748;12.106;2023-02-03T04:42:09;170.53;;;138.70;;
12631;SDS011;6381;45.748;12.106;2023-02-03T04:44:38;168.33;;;132.93;;
12631;SDS011;6381;45.748;12.106;2023-02-03T04:47:06;156.60;;;129.90;;
12631;SDS011;6381;45.748;12.106;2023-02-03T04:49:35;158.33;;;130.03;;
12631;SDS011;6381;45.748;12.106;2023-02-03T04:52:04;153.73;;;127.70;;
12631;SDS011;6381;45.748;12.106;2023-02-03T04:54:34;156.07;;;129.50;;
12631;SDS011;6381;45.748;12.106;2023-02-03T04:57:03;148.97;;;123.90;;
12631;SDS011;6381;45.748;12.106;2023-02-03T04:59:32;154.47;;;124.13;;
12631;SDS011;6381;45.748;12.106;2023-02-03T05:02:01;155.13;;;126.53;;
12631;SDS011;6381;45.748;12.106;2023-02-03T05:04:30;145.87;;;123.83;;
12631;SDS011;6381;45.748;12.106;2023-02-03T05:06:59;149.20;;;126.30;;
12631;SDS011;6381;45.748;12.106;2023-02-03T05:09:27;147.53;;;124.90;;
12631;SDS011;6381;45.748;12.106;2023-02-03T05:11:57;148.77;;;124.23;;
12631;SDS011;6381;45.748;12.106;2023-02-03T05:14:26;147.73;;;123.20;;
12631;SDS011;6381;45.748;12.106;2023-02-03T05:16:54;148.47;;;122.93;;
12631;SDS011;6381;45.748;12.106;2023-02-03T05:19:23;155.87;;;124.70;;
12631;SDS011;6381;45.748;12.106;2023-02-03T05:21:52;148.57;;;122.90;;
12631;SDS011;6381;45.748;12.106;2023-02-03T05:24:20;151.03;;;123.93;;
12631;SDS011;6381;45.748;12.106;2023-02-03T05:26:49;148.17;;;122.70;;
12631;SDS011;6381;45.748;12.106;2023-02-03T05:29:19;146.83;;;122.67;;
12631;SDS011;6381;45.748;12.106;2023-02-03T05:31:48;143.10;;;120.70;;
12631;SDS011;6381;45.748;12.106;2023-02-03T05:34:16;154.77;;;127.43;;
12631;SDS011;6381;45.748;12.106;2023-02-03T05:36:45;150.37;;;124.27;;
12631;SDS011;6381;45.748;12.106;2023-02-03T05:39:14;150.73;;;124.30;;
12631;SDS011;6381;45.748;12.106;2023-02-03T05:41:42;150.10;;;121.43;;
12631;SDS011;6381;45.748;12.106;2023-02-03T05:44:21;154.93;;;123.13;;
12631;SDS011;6381;45.748;12.106;2023-02-03T05:46:51;146.17;;;121.77;;
12631;SDS011;6381;45.748;12.106;2023-02-03T05:49:21;152.90;;;124.37;;
12631;SDS011;6381;45.748;12.106;2023-02-03T05:51:50;152.57;;;122.37;;
12631;SDS011;6381;45.748;12.106;2023-02-03T05:54:19;155.80;;;126.80;;
12631;SDS011;6381;45.748;12.106;2023-02-03T05:56:48;153.87;;;130.20;;
12631;SDS011;6381;45.748;12.106;2023-02-03T05:59:17;161.47;;;131.07;;
12631;SDS011;6381;45.748;12.106;2023-02-03T06:01:47;161.40;;;132.57;;
12631;SDS011;6381;45.748;12.106;2023-02-03T06:04:16;167.40;;;131.03;;
12631;SDS011;6381;45.748;12.106;2023-02-03T06:06:45;163.90;;;129.23;;
12631;SDS011;6381;45.748;12.106;2023-02-03T06:09:13;160.90;;;131.07;;
12631;SDS011;6381;45.748;12.106;2023-02-03T06:11:42;156.90;;;132.57;;
12631;SDS011;6381;45.748;12.106;2023-02-03T06:14:11;164.40;;;133.57;;
12631;SDS011;6381;45.748;12.106;2023-02-03T06:16:40;167.73;;;131.90;;
12631;SDS011;6381;45.748;12.106;2023-02-03T06:19:10;167.80;;;131.40;;
12631;SDS011;6381;45.748;12.106;2023-02-03T06:21:41;164.50;;;131.30;;
12631;SDS011;6381;45.748;12.106;2023-02-03T06:24:10;161.13;;;130.50;;
12631;SDS011;6381;45.748;12.106;2023-02-03T06:26:39;164.03;;;130.07;;
12631;SDS011;6381;45.748;12.106;2023-02-03T06:29:07;173.07;;;137.13;;
12631;SDS011;6381;45.748;12.106;2023-02-03T06:31:36;160.70;;;132.60;;
12631;SDS011;6381;45.748;12.106;2023-02-03T06:34:04;177.23;;;137.27;;
12631;SDS011;6381;45.748;12.106;2023-02-03T06:36:34;174.37;;;135.83;;
12631;SDS011;6381;45.748;12.106;2023-02-03T06:39:03;185.47;;;136.67;;
12631;SDS011;6381;45.748;12.106;2023-02-03T06:41:32;182.83;;;142.50;;
12631;SDS011;6381;45.748;12.106;2023-02-03T06:44:01;184.83;;;141.03;;
12631;SDS011;6381;45.748;12.106;2023-02-03T06:46:30;190.17;;;145.33;;
12631;SDS011;6381;45.748;12.106;2023-02-03T06:48:59;182.63;;;141.13;;
12631;SDS011;6381;45.748;12.106;2023-02-03T06:51:28;178.47;;;139.70;;
12631;SDS011;6381;45.748;12.106;2023-02-03T06:53:58;179.93;;;137.60;;
12631;SDS011;6381;45.748;12.106;2023-02-03T06:56:27;182.27;;;140.10;;
12631;SDS011;6381;45.748;12.106;2023-02-03T06:58:55;167.43;;;131.97;;
12631;SDS011;6381;45.748;12.106;2023-02-03T07:01:24;168.67;;;130.57;;
12631;SDS011;6381;45.748;12.106;2023-02-03T07:03:54;164.07;;;132.60;;
12631;SDS011;6381;45.748;12.106;2023-02-03T07:06:24;160.83;;;128.90;;
12631;SDS011;6381;45.748;12.106;2023-02-03T07:08:59;158.67;;;125.70;;
12631;SDS011;6381;45.748;12.106;2023-02-03T07:11:28;155.30;;;124.03;;
12631;SDS011;6381;45.748;12.106;2023-02-03T07:13:57;149.97;;;121.23;;
12631;SDS011;6381;45.748;12.106;2023-02-03T07:16:26;159.17;;;126.80;;
12631;SDS011;6381;45.748;12.106;2023-02-03T07:18:55;155.50;;;124.27;;
12631;SDS011;6381;45.748;12.106;2023-02-03T07:21:23;160.40;;;129.47;;
12631;SDS011;6381;45.748;12.106;2023-02-03T07:23:52;161.53;;;127.60;;
12631;SDS011;6381;45.748;12.106;2023-02-03T07:26:22;155.27;;;123.63;;
12631;SDS011;6381;45.748;12.106;2023-02-03T07:28:52;155.00;;;126.73;;
12631;SDS011;6381;45.748;12.106;2023-02-03T07:31:20;151.83;;;122.37;;
12631;SDS011;6381;45.748;12.106;2023-02-03T07:33:49;144.70;;;117.93;;
12631;SDS011;6381;45.748;12.106;2023-02-03T07:36:17;144.67;;;121.13;;
12631;SDS011;6381;45.748;12.106;2023-02-03T07:38:46;148.73;;;120.97;;
12631;SDS011;6381;45.748;12.106;2023-02-03T07:41:15;158.13;;;124.13;;
12631;SDS011;6381;45.748;12.106;2023-02-03T07:43:45;146.53;;;120.00;;
12631;SDS011;6381;45.748;12.106;2023-02-03T07:46:14;143.93;;;119.80;;
12631;SDS011;6381;45.748;12.106;2023-02-03T07:48:43;150.50;;;122.37;;
12631;SDS011;6381;45.748;12.106;2023-02-03T07:51:11;259.07;;;203.87;;
12631;SDS011;6381;45.748;12.106;2023-02-03T07:53:40;304.43;;;237.90;;
12631;SDS011;6381;45.748;12.106;2023-02-03T07:56:08;309.83;;;250.13;;
12631;SDS011;6381;45.748;12.106;2023-02-03T07:58:37;255.80;;;215.03;;
12631;SDS011;6381;45.748;12.106;2023-02-03T08:01:11;228.27;;;187.80;;
12631;SDS011;6381;45.748;12.106;2023-02-03T08:03:42;163.00;;;134.63;;
12631;SDS011;6381;45.748;12.106;2023-02-03T08:06:11;138.87;;;117.73;;
12631;SDS011;6381;45.748;12.106;2023-02-03T08:08:39;132.30;;;110.87;;
12631;SDS011;6381;45.748;12.106;2023-02-03T08:11:09;129.10;;;103.53;;
12631;SDS011;6381;45.748;12.106;2023-02-03T08:13:38;130.53;;;103.83;;
12631;SDS011;6381;45.748;12.106;2023-02-03T08:16:06;120.93;;;100.43;;
12631;SDS011;6381;45.748;12.106;2023-02-03T08:18:36;125.03;;;102.27;;
12631;SDS011;6381;45.748;12.106;2023-02-03T08:21:05;122.17;;;97.77;;
12631;SDS011;6381;45.748;12.106;2023-02-03T08:23:34;110.93;;;90.17;;
12631;SDS011;6381;45.748;12.106;2023-02-03T08:26:02;117.27;;;88.83;;
12631;SDS011;6381;45.748;12.106;2023-02-03T08:28:31;118.10;;;93.07;;
12631;SDS011;6381;45.748;12.106;2023-02-03T08:31:00;120.77;;;94.37;;
12631;SDS011;6381;45.748;12.106;2023-02-03T08:33:28;123.40;;;94.17;;
12631;SDS011;6381;45.748;12.106;2023-02-03T08:35:58;124.97;;;97.67;;
12631;SDS011;6381;45.748;12.106;2023-02-03T08:38:28;123.77;;;95.03;;
12631;SDS011;6381;45.748;12.106;2023-02-03T08:40:57;112.73;;;85.77;;
12631;SDS011;6381;45.748;12.106;2023-02-03T08:43:25;105.67;;;80.77;;
12631;SDS011;6381;45.748;12.106;2023-02-03T08:45:54;107.77;;;81.83;;
12631;SDS011;6381;45.748;12.106;2023-02-03T08:48:23;108.67;;;81.23;;
12631;SDS011;6381;45.748;12.106;2023-02-03T08:50:51;110.40;;;83.60;;
12631;SDS011;6381;45.748;12.106;2023-02-03T08:53:22;108.93;;;80.10;;
12631;SDS011;6381;45.748;12.106;2023-02-03T08:55:51;103.43;;;78.57;;
12631;SDS011;6381;45.748;12.106;2023-02-03T08:58:19;105.67;;;79.43;;
12631;SDS011;6381;45.748;12.106;2023-02-03T09:00:49;89.87;;;68.40;;
12631;SDS011;6381;45.748;12.106;2023-02-03T09:03:18;82.30;;;65.10;;
12631;SDS011;6381;45.748;12.106;2023-02-03T09:05:47;86.23;;;64.47;;
12631;SDS011;6381;45.748;12.106;2023-02-03T09:08:16;80.90;;;60.27;;
12631;SDS011;6381;45.748;12.106;2023-02-03T09:10:46;78.73;;;58.47;;
12631;SDS011;6381;45.748;12.106;2023-02-03T09:13:14;82.27;;;60.43;;
12631;SDS011;6381;45.748;12.106;2023-02-03T09:15:43;68.10;;;53.83;;
12631;SDS011;6381;45.748;12.106;2023-02-03T09:18:12;62.53;;;49.97;;
12631;SDS011;6381;45.748;12.106;2023-02-03T09:20:40;49.53;;;40.03;;
12631;SDS011;6381;45.748;12.106;2023-02-03T09:23:09;46.33;;;38.40;;
12631;SDS011;6381;45.748;12.106;2023-02-03T09:25:38;43.27;;;35.13;;
12631;SDS011;6381;45.748;12.106;2023-02-03T09:28:12;42.93;;;34.83;;
12631;SDS011;6381;45.748;12.106;2023-02-03T09:30:41;41.90;;;33.60;;
12631;SDS011;6381;45.748;12.106;2023-02-03T09:33:09;35.13;;;29.70;;
12631;SDS011;6381;45.748;12.106;2023-02-03T09:35:38;35.03;;;29.70;;
12631;SDS011;6381;45.748;12.106;2023-02-03T09:38:07;35.57;;;29.93;;
12631;SDS011;6381;45.748;12.106;2023-02-03T09:40:35;36.50;;;29.37;;
12631;SDS011;6381;45.748;12.106;2023-02-03T09:43:09;37.80;;;29.63;;
12631;SDS011;6381;45.748;12.106;2023-02-03T09:45:47;36.60;;;29.70;;
12631;SDS011;6381;45.748;12.106;2023-02-03T09:48:17;37.40;;;30.83;;
12631;SDS011;6381;45.748;12.106;2023-02-03T09:50:50;37.77;;;29.17;;
12631;SDS011;6381;45.748;12.106;2023-02-03T09:53:22;34.03;;;29.23;;
12631;SDS011;6381;45.748;12.106;2023-02-03T09:55:55;37.40;;;30.17;;
12631;SDS011;6381;45.748;12.106;2023-02-03T09:58:26;36.03;;;30.03;;
12631;SDS011;6381;45.748;12.106;2023-02-03T10:01:00;38.40;;;31.43;;
12631;SDS011;6381;45.748;12.106;2023-02-03T10:03:34;39.20;;;30.73;;
12631;SDS011;6381;45.748;12.106;2023-02-03T10:06:15;42.97;;;32.33;;
12631;SDS011;6381;45.748;12.106;2023-02-03T10:11:51;42.17;;;32.07;;
12631;SDS011;6381;45.748;12.106;2023-02-03T10:14:37;43.23;;;33.47;;
12631;SDS011;6381;45.748;12.106;2023-02-03T10:17:20;41.90;;;31.53;;
12631;SDS011;6381;45.748;12.106;2023-02-03T10:19:58;43.70;;;33.37;;
12631;SDS011;6381;45.748;12.106;2023-02-03T10:22:31;44.13;;;35.53;;
12631;SDS011;6381;45.748;12.106;2023-02-03T10:25:06;42.27;;;34.87;;
12631;SDS011;6381;45.748;12.106;2023-02-03T10:27:42;45.53;;;36.40;;
12631;SDS011;6381;45.748;12.106;2023-02-03T10:30:16;50.00;;;41.43;;
12631;SDS011;6381;45.748;12.106;2023-02-03T10:32:48;48.73;;;38.70;;
12631;SDS011;6381;45.748;12.106;2023-02-03T10:35:21;46.47;;;37.90;;
12631;SDS011;6381;45.748;12.106;2023-02-03T10:37:55;52.10;;;43.17;;
12631;SDS011;6381;45.748;12.106;2023-02-03T10:40:25;56.53;;;44.10;;
12631;SDS011;6381;45.748;12.106;2023-02-03T10:42:55;64.70;;;46.00;;
12631;SDS011;6381;45.748;12.106;2023-02-03T10:45:43;55.73;;;44.93;;
12631;SDS011;6381;45.748;12.106;2023-02-03T10:48:12;65.27;;;48.23;;
12631;SDS011;6381;45.748;12.106;2023-02-03T10:50:45;62.10;;;48.10;;
12631;SDS011;6381;45.748;12.106;2023-02-03T10:53:21;67.80;;;49.73;;
12631;SDS011;6381;45.748;12.106;2023-02-03T10:55:58;69.97;;;52.97;;
12631;SDS011;6381;45.748;12.106;2023-02-03T10:58:29;68.70;;;52.67;;
12631;SDS011;6381;45.748;12.106;2023-02-03T11:01:08;79.67;;;57.80;;
12631;SDS011;6381;45.748;12.106;2023-02-03T11:03:40;90.93;;;64.33;;
12631;SDS011;6381;45.748;12.106;2023-02-03T11:06:10;91.93;;;69.80;;
12631;SDS011;6381;45.748;12.106;2023-02-03T11:08:41;89.90;;;68.80;;
12631;SDS011;6381;45.748;12.106;2023-02-03T11:11:12;90.23;;;67.37;;
12631;SDS011;6381;45.748;12.106;2023-02-03T11:13:42;98.83;;;70.17;;
12631;SDS011;6381;45.748;12.106;2023-02-03T11:16:13;90.93;;;70.33;;
12631;SDS011;6381;45.748;12.106;2023-02-03T11:18:50;99.93;;;72.73;;
12631;SDS011;6381;45.748;12.106;2023-02-03T11:21:22;100.00;;;76.53;;
12631;SDS011;6381;45.748;12.106;2023-02-03T11:23:53;105.93;;;78.47;;
12631;SDS011;6381;45.748;12.106;2023-02-03T11:26:26;106.50;;;75.67;;
12631;SDS011;6381;45.748;12.106;2023-02-03T11:28:58;106.40;;;76.60;;
12631;SDS011;6381;45.748;12.106;2023-02-03T11:31:30;99.73;;;77.83;;
12631;SDS011;6381;45.748;12.106;2023-02-03T11:34:01;103.10;;;77.23;;
12631;SDS011;6381;45.748;12.106;2023-02-03T11:36:33;106.23;;;78.17;;
12631;SDS011;6381;45.748;12.106;2023-02-03T11:39:09;106.87;;;79.37;;
12631;SDS011;6381;45.748;12.106;2023-02-03T11:41:44;101.30;;;76.77;;
12631;SDS011;6381;45.748;12.106;2023-02-03T11:44:18;104.90;;;79.33;;
12631;SDS011;6381;45.748;12.106;2023-02-03T11:46:50;101.13;;;76.90;;
12631;SDS011;6381;45.748;12.106;2023-02-03T11:52:39;97.53;;;72.80;;
12631;SDS011;6381;45.748;12.106;2023-02-03T11:55:17;89.57;;;68.53;;
12631;SDS011;6381;45.748;12.106;2023-02-03T11:58:02;92.73;;;72.10;;
12631;SDS011;6381;45.748;12.106;2023-02-03T12:00:41;90.33;;;69.60;;
12631;SDS011;6381;45.748;12.106;2023-02-03T12:03:35;93.83;;;69.87;;
12631;SDS011;6381;45.748;12.106;2023-02-03T12:09:34;97.07;;;74.60;;
12631;SDS011;6381;45.748;12.106;2023-02-03T12:15:20;91.77;;;71.67;;
12631;SDS011;6381;45.748;12.106;2023-02-03T12:18:12;94.07;;;70.50;;
12631;SDS011;6381;45.748;12.106;2023-02-03T12:20:59;93.67;;;72.83;;
12631;SDS011;6381;45.748;12.106;2023-02-03T12:23:42;94.23;;;73.07;;
12631;SDS011;6381;45.748;12.106;2023-02-03T12:26:18;95.83;;;75.33;;
12631;SDS011;6381;45.748;12.106;2023-02-03T12:28:53;94.83;;;74.60;;
12631;SDS011;6381;45.748;12.106;2023-02-03T12:31:29;94.67;;;73.63;;
12631;SDS011;6381;45.748;12.106;2023-02-03T12:34:04;99.23;;;73.10;;
12631;SDS011;6381;45.748;12.106;2023-02-03T12:36:41;92.60;;;73.30;;
12631;SDS011;6381;45.748;12.106;2023-02-03T12:39:17;97.47;;;72.93;;
12631;SDS011;6381;45.748;12.106;2023-02-03T12:41:49;94.17;;;73.73;;
12631;SDS011;6381;45.748;12.106;2023-02-03T12:44:25;91.90;;;73.13;;
12631;SDS011;6381;45.748;12.106;2023-02-03T12:47:00;91.07;;;69.87;;
12631;SDS011;6381;45.748;12.106;2023-02-03T12:49:35;93.90;;;71.17;;
12631;SDS011;6381;45.748;12.106;2023-02-03T12:52:13;97.23;;;72.33;;
12631;SDS011;6381;45.748;12.106;2023-02-03T12:54:48;93.83;;;68.87;;
12631;SDS011;6381;45.748;12.106;2023-02-03T12:57:23;90.43;;;69.63;;
12631;SDS011;6381;45.748;12.106;2023-02-03T13:00:01;91.33;;;69.60;;
12631;SDS011;6381;45.748;12.106;2023-02-03T13:02:39;84.07;;;68.50;;
12631;SDS011;6381;45.748;12.106;2023-02-03T13:05:19;89.10;;;68.03;;
12631;SDS011;6381;45.748;12.106;2023-02-03T13:07:53;84.93;;;65.43;;
12631;SDS011;6381;45.748;12.106;2023-02-03T13:10:30;88.40;;;67.13;;
12631;SDS011;6381;45.748;12.106;2023-02-03T13:13:03;89.60;;;69.10;;
12631;SDS011;6381;45.748;12.106;2023-02-03T13:15:36;86.47;;;67.17;;
12631;SDS011;6381;45.748;12.106;2023-02-03T13:18:10;87.13;;;66.50;;
12631;SDS011;6381;45.748;12.106;2023-02-03T13:20:45;84.67;;;67.77;;
12631;SDS011;6381;45.748;12.106;2023-02-03T13:23:15;84.87;;;66.53;;
12631;SDS011;6381;45.748;12.106;2023-02-03T13:25:47;88.80;;;65.83;;
12631;SDS011;6381;45.748;12.106;2023-02-03T13:28:28;81.77;;;65.67;;
12631;SDS011;6381;45.748;12.106;2023-02-03T13:31:14;89.07;;;68.17;;
12631;SDS011;6381;45.748;12.106;2023-02-03T13:33:54;83.90;;;66.70;;
12631;SDS011;6381;45.748;12.106;2023-02-03T13:36:38;86.13;;;66.90;;
12631;SDS011;6381;45.748;12.106;2023-02-03T13:39:26;85.60;;;65.67;;
12631;SDS011;6381;45.748;12.106;2023-02-03T13:42:09;86.57;;;66.47;;
12631;SDS011;6381;45.748;12.106;2023-02-03T13:44:52;77.40;;;64.77;;
12631;SDS011;6381;45.748;12.106;2023-02-03T13:47:24;83.87;;;67.13;;
12631;SDS011;6381;45.748;12.106;2023-02-03T13:49:55;83.60;;;70.73;;
12631;SDS011;6381;45.748;12.106;2023-02-03T13:52:29;87.00;;;65.67;;
12631;SDS011;6381;45.748;12.106;2023-02-03T13:55:06;86.87;;;64.47;;
12631;SDS011;6381;45.748;12.106;2023-02-03T13:57:49;78.30;;;62.33;;
12631;SDS011;6381;45.748;12.106;2023-02-03T14:06:09;78.97;;;61.67;;
12631;SDS011;6381;45.748;12.106;2023-02-03T14:09:18;81.53;;;66.10;;
12631;SDS011;6381;45.748;12.106;2023-02-03T14:11:50;84.83;;;68.27;;
12631;SDS011;6381;45.748;12.106;2023-02-03T14:20:41;83.37;;;64.50;;
12631;SDS011;6381;45.748;12.106;2023-02-03T14:23:21;86.20;;;64.33;;
12631;SDS011;6381;45.748;12.106;2023-02-03T14:25:56;85.67;;;66.67;;
12631;SDS011;6381;45.748;12.106;2023-02-03T14:28:30;86.40;;;65.80;;
12631;SDS011;6381;45.748;12.106;2023-02-03T14:31:07;88.37;;;66.40;;
12631;SDS011;6381;45.748;12.106;2023-02-03T14:34:00;82.50;;;66.00;;
12631;SDS011;6381;45.748;12.106;2023-02-03T14:36:39;86.67;;;69.27;;
12631;SDS011;6381;45.748;12.106;2023-02-03T14:39:27;88.60;;;67.20;;
12631;SDS011;6381;45.748;12.106;2023-02-03T14:45:48;95.93;;;70.27;;
12631;SDS011;6381;45.748;12.106;2023-02-03T14:48:47;93.27;;;69.50;;
12631;SDS011;6381;45.748;12.106;2023-02-03T14:51:30;94.23;;;71.13;;
12631;SDS011;6381;45.748;12.106;2023-02-03T14:54:16;91.43;;;69.80;;
12631;SDS011;6381;45.748;12.106;2023-02-03T14:57:01;93.40;;;69.40;;
12631;SDS011;6381;45.748;12.106;2023-02-03T14:59:46;84.17;;;66.30;;
12631;SDS011;6381;45.748;12.106;2023-02-03T15:02:18;87.50;;;67.30;;
12631;SDS011;6381;45.748;12.106;2023-02-03T15:04:51;88.53;;;69.57;;